createdAt,value
2022-12-05T00:01:13.167Z,22.40
2022-12-05T00:03:39.784Z,22.36
2022-12-05T00:06:06.518Z,22.41
2022-12-05T00:08:33.216Z,22.42
2022-12-05T00:10:59.794Z,22.37
2022-12-05T00:13:26.473Z,22.38
2022-12-05T00:15:53.009Z,22.41
2022-12-05T00:18:19.579Z,22.56
2022-12-05T00:20:47.817Z,22.54
2022-12-05T00:23:14.996Z,22.30
2022-12-05T00:25:42.017Z,22.17
2022-12-05T00:28:08.638Z,21.99
2022-12-05T00:30:35.283Z,21.82
2022-12-05T00:33:01.943Z,21.67
2022-12-05T00:35:28.487Z,21.54
2022-12-05T00:37:55.103Z,21.43
2022-12-05T00:40:21.807Z,21.36
2022-12-05T00:42:52.291Z,21.31
2022-12-05T00:45:19.328Z,21.23
2022-12-05T00:47:46.008Z,21.21
2022-12-05T00:50:12.601Z,21.13
2022-12-05T00:52:39.157Z,21.08
2022-12-05T00:55:06.188Z,21.08
2022-12-05T00:57:33.115Z,21.00
2022-12-05T00:59:59.902Z,20.98
2022-12-05T01:02:26.594Z,21.00
2022-12-05T01:04:53.147Z,21.00
2022-12-05T01:07:19.793Z,20.97
2022-12-05T01:09:46.332Z,20.96
2022-12-05T01:12:12.885Z,20.96
2022-12-05T01:14:39.477Z,20.94
2022-12-05T01:17:06.190Z,20.94
2022-12-05T01:19:33.540Z,20.95
2022-12-05T01:22:00.172Z,20.97
2022-12-05T01:24:28.228Z,20.97
2022-12-05T01:26:55.404Z,20.91
2022-12-05T01:29:23.938Z,20.95
2022-12-05T01:31:50.935Z,20.89
2022-12-05T01:34:18.589Z,20.92
2022-12-05T01:36:45.598Z,20.83
2022-12-05T01:39:13.648Z,20.78
2022-12-05T01:41:43.853Z,20.74
2022-12-05T01:44:13.106Z,20.72
2022-12-05T01:46:44.748Z,20.70
2022-12-05T01:49:15.661Z,20.66
2022-12-05T01:51:46.969Z,20.62
2022-12-05T01:54:16.446Z,20.60
2022-12-05T01:56:46.873Z,20.59
2022-12-05T01:59:14.193Z,20.53
2022-12-05T02:01:41.453Z,20.52
2022-12-05T02:04:09.507Z,20.51
2022-12-05T02:06:36.110Z,20.51
2022-12-05T02:09:03.701Z,20.48
2022-12-05T02:11:33.325Z,20.45
2022-12-05T02:14:02.788Z,20.45
2022-12-05T02:16:41.496Z,20.43
2022-12-05T02:19:35.266Z,20.45
2022-12-05T02:22:36.813Z,20.42
2022-12-05T02:25:30.800Z,20.36
2022-12-05T02:28:22.081Z,20.36
2022-12-05T02:30:58.116Z,20.37
2022-12-05T02:33:30.685Z,20.37
2022-12-05T02:36:15.755Z,20.40
2022-12-05T02:39:15.257Z,20.37
2022-12-05T02:41:52.985Z,20.37
2022-12-05T02:44:43.796Z,20.39
2022-12-05T02:47:14.827Z,20.34
2022-12-05T02:49:43.212Z,20.36
2022-12-05T02:52:14.273Z,20.33
2022-12-05T02:54:45.022Z,20.34
2022-12-05T02:57:13.387Z,20.35
2022-12-05T02:59:40.183Z,20.32
2022-12-05T03:02:09.252Z,20.29
2022-12-05T03:04:35.880Z,20.31
2022-12-05T03:07:07.120Z,20.30
2022-12-05T03:09:43.380Z,20.28
2022-12-05T03:12:20.413Z,20.28
2022-12-05T03:15:05.623Z,20.27
2022-12-05T03:17:37.575Z,20.26
2022-12-05T03:20:23.066Z,20.26
2022-12-05T03:23:14.446Z,20.24
2022-12-05T03:26:05.452Z,20.27
2022-12-05T03:28:46.540Z,20.15
2022-12-05T03:31:18.367Z,20.22
2022-12-05T03:33:49.508Z,20.17
2022-12-05T03:36:22.858Z,20.17
2022-12-05T03:38:57.698Z,20.21
2022-12-05T03:41:42.903Z,20.19
2022-12-05T03:44:13.775Z,20.16
2022-12-05T03:47:09.392Z,20.20
2022-12-05T03:49:41.565Z,20.18
2022-12-05T03:52:23.235Z,20.19
2022-12-05T03:54:53.782Z,20.14
2022-12-05T03:57:29.451Z,20.17
2022-12-05T04:00:01.743Z,20.22
2022-12-05T04:02:56.105Z,20.26
2022-12-05T04:05:32.362Z,20.25
2022-12-05T04:08:04.936Z,20.26
2022-12-05T04:10:48.509Z,20.26
2022-12-05T04:13:35.052Z,20.26
2022-12-05T04:16:26.768Z,20.23
2022-12-05T04:18:59.911Z,20.25
2022-12-05T04:21:40.035Z,20.20
2022-12-05T04:24:29.505Z,20.20
2022-12-05T04:27:08.516Z,20.20
2022-12-05T04:29:42.521Z,20.21
2022-12-05T04:32:13.233Z,20.26
2022-12-05T04:34:42.377Z,20.22
2022-12-05T04:37:16.324Z,20.23
2022-12-05T04:39:51.666Z,20.17
2022-12-05T04:42:26.090Z,20.16
2022-12-05T04:45:00.785Z,20.14
2022-12-05T04:47:31.820Z,20.14
2022-12-05T04:50:00.447Z,20.14
2022-12-05T04:52:28.999Z,20.15
2022-12-05T04:55:01.290Z,20.15
2022-12-05T04:57:40.704Z,20.17
2022-12-05T05:00:08.210Z,20.18
2022-12-05T05:02:47.030Z,20.22
2022-12-05T05:05:17.927Z,20.20
2022-12-05T05:07:50.819Z,20.18
2022-12-05T05:10:23.028Z,20.18
2022-12-05T05:12:49.583Z,20.15
2022-12-05T05:15:16.177Z,20.11
2022-12-05T05:17:42.928Z,20.12
2022-12-05T05:20:24.974Z,20.08
2022-12-05T05:22:53.033Z,20.09
2022-12-05T05:25:20.032Z,20.11
2022-12-05T05:27:51.294Z,20.13
2022-12-05T05:30:19.574Z,20.15
2022-12-05T05:32:46.500Z,20.17
2022-12-05T05:35:14.578Z,20.18
2022-12-05T05:37:41.910Z,20.15
2022-12-05T05:40:11.396Z,20.19
2022-12-05T05:42:46.504Z,20.21
2022-12-05T05:45:15.098Z,20.21
2022-12-05T05:47:42.554Z,20.25
2022-12-05T05:50:10.186Z,20.19
2022-12-05T05:52:38.042Z,20.17
2022-12-05T05:55:06.425Z,20.22
2022-12-05T05:57:33.204Z,20.18
2022-12-05T06:00:00.079Z,20.17
2022-12-05T06:02:32.419Z,20.18
2022-12-05T06:04:59.457Z,20.15
2022-12-05T06:07:26.910Z,20.12
2022-12-05T06:09:53.553Z,20.22
2022-12-05T06:12:20.195Z,20.25
2022-12-05T06:14:48.802Z,20.28
2022-12-05T06:17:15.643Z,20.30
2022-12-05T06:19:42.275Z,20.35
2022-12-05T06:22:08.847Z,20.34
2022-12-05T06:24:35.683Z,20.38
2022-12-05T06:27:02.248Z,20.35
2022-12-05T06:29:32.456Z,20.38
2022-12-05T06:32:00.675Z,20.36
2022-12-05T06:34:27.746Z,20.37
2022-12-05T06:36:54.401Z,20.39
2022-12-05T06:39:21.033Z,20.41
2022-12-05T06:41:47.821Z,20.42
2022-12-05T06:44:14.388Z,20.36
2022-12-05T06:46:40.956Z,20.34
2022-12-05T06:49:07.506Z,20.39
2022-12-05T06:51:34.082Z,20.30
2022-12-05T06:54:00.685Z,20.30
2022-12-05T06:56:27.378Z,20.31
2022-12-05T06:58:54.172Z,20.26
2022-12-05T07:01:42.335Z,20.43
2022-12-05T07:04:16.998Z,20.49
2022-12-05T07:06:50.180Z,20.46
2022-12-05T07:09:43.592Z,20.44
2022-12-05T07:12:10.470Z,20.39
2022-12-05T07:14:47.442Z,20.39
2022-12-05T07:17:15.919Z,20.39
2022-12-05T07:19:42.486Z,20.35
2022-12-05T07:22:13.842Z,20.39
2022-12-05T07:24:42.253Z,20.39
2022-12-05T07:27:08.872Z,20.38
2022-12-05T07:29:35.460Z,20.34
2022-12-05T07:32:02.208Z,20.34
2022-12-05T07:34:28.978Z,20.31
2022-12-05T07:36:55.551Z,20.31
2022-12-05T07:39:22.141Z,20.25
2022-12-05T07:41:48.750Z,20.34
2022-12-05T07:44:15.324Z,20.33
2022-12-05T07:46:42.097Z,20.31
2022-12-05T07:49:09.084Z,20.31
2022-12-05T07:51:35.920Z,20.29
2022-12-05T07:54:02.845Z,20.27
2022-12-05T07:56:29.437Z,20.28
2022-12-05T07:58:56.023Z,20.23
2022-12-05T08:01:25.105Z,20.20
2022-12-05T08:03:57.157Z,20.27
2022-12-05T08:06:27.079Z,20.26
2022-12-05T08:08:54.186Z,20.25
2022-12-05T08:11:26.671Z,20.24
2022-12-05T08:13:53.727Z,20.21
2022-12-05T08:16:23.636Z,20.24
2022-12-05T08:19:08.850Z,20.26
2022-12-05T08:21:36.672Z,20.24
2022-12-05T08:24:07.821Z,20.23
2022-12-05T08:26:35.458Z,20.24
2022-12-05T08:29:04.013Z,20.25
2022-12-05T08:31:33.708Z,20.17
2022-12-05T08:34:00.739Z,20.24
2022-12-05T08:36:31.271Z,20.23
2022-12-05T08:38:59.728Z,20.24
2022-12-05T08:41:28.989Z,20.27
2022-12-05T08:44:03.487Z,20.27
2022-12-05T08:46:31.288Z,20.24
2022-12-05T08:48:58.012Z,20.26
2022-12-05T08:51:25.040Z,20.27
2022-12-05T08:53:51.738Z,20.27
2022-12-05T08:56:23.353Z,20.32
2022-12-05T08:58:53.195Z,20.25
2022-12-05T09:01:22.127Z,20.34
2022-12-05T09:03:49.144Z,20.24
2022-12-05T09:06:21.375Z,20.28
2022-12-05T09:08:49.037Z,20.25
2022-12-05T09:11:20.176Z,20.24
2022-12-05T09:13:47.894Z,20.25
2022-12-05T09:16:20.485Z,20.25
2022-12-05T09:18:48.633Z,20.26
2022-12-05T09:21:21.114Z,20.21
2022-12-05T09:23:48.578Z,20.26
2022-12-05T09:26:17.924Z,20.23
2022-12-05T09:28:44.755Z,20.19
2022-12-05T09:31:16.957Z,20.18
2022-12-05T09:33:43.999Z,20.18
2022-12-05T09:36:16.166Z,20.21
2022-12-05T09:38:43.630Z,20.21
2022-12-05T09:41:56.077Z,20.15
2022-12-05T09:45:00.232Z,20.21
2022-12-05T09:47:38.780Z,20.22
2022-12-05T09:50:17.287Z,20.25
2022-12-05T09:53:09.633Z,20.27
2022-12-05T09:55:45.729Z,20.26
2022-12-05T09:58:27.599Z,20.27
2022-12-05T10:01:00.682Z,20.29
2022-12-05T10:03:37.708Z,20.26
2022-12-05T10:06:24.175Z,20.25
2022-12-05T10:08:56.554Z,20.22
2022-12-05T10:11:43.771Z,20.21
2022-12-05T10:14:26.454Z,20.23
2022-12-05T10:16:58.725Z,20.19
2022-12-05T10:19:34.459Z,20.20
2022-12-05T10:22:20.542Z,20.19
2022-12-05T10:24:52.577Z,20.22
2022-12-05T10:27:40.082Z,20.21
2022-12-05T10:30:13.841Z,20.18
2022-12-05T10:32:56.682Z,20.25
2022-12-05T10:35:26.199Z,20.21
2022-12-05T10:37:57.229Z,20.22
2022-12-05T10:40:27.495Z,20.25
2022-12-05T10:42:54.089Z,20.21
2022-12-05T10:45:23.180Z,20.22
2022-12-05T10:47:54.137Z,20.19
2022-12-05T10:50:23.583Z,20.18
2022-12-05T10:52:56.938Z,20.18
2022-12-05T10:55:29.868Z,20.18
2022-12-05T10:58:18.075Z,20.20
2022-12-05T11:00:48.186Z,20.16
2022-12-05T11:03:24.377Z,20.15
2022-12-05T11:05:52.582Z,20.11
2022-12-05T11:08:56.107Z,20.14
2022-12-05T11:11:22.593Z,20.16
2022-12-05T11:14:25.381Z,20.16
2022-12-05T11:16:58.137Z,20.13
2022-12-05T11:19:32.078Z,20.14
2022-12-05T11:21:59.948Z,20.19
2022-12-05T11:24:33.392Z,20.18
2022-12-05T11:27:20.767Z,20.20
2022-12-05T11:30:21.409Z,20.19
2022-12-05T11:32:49.600Z,20.16
2022-12-05T11:35:16.102Z,20.15
2022-12-05T11:37:48.557Z,20.17
2022-12-05T11:40:18.061Z,20.17
2022-12-05T11:43:13.441Z,20.13
2022-12-05T11:45:58.599Z,20.14
2022-12-05T11:48:57.211Z,20.12
2022-12-05T11:51:40.041Z,20.13
2022-12-05T11:55:03.793Z,20.16
2022-12-05T11:57:22.810Z,20.17
2022-12-05T12:00:04.004Z,20.16
2022-12-05T12:02:49.180Z,20.19
2022-12-05T12:05:40.339Z,20.16
2022-12-05T12:08:09.966Z,20.14
2022-12-05T12:10:57.605Z,20.19
2022-12-05T12:13:46.427Z,20.16
2022-12-05T12:16:37.643Z,20.17
2022-12-05T12:19:19.550Z,20.15
2022-12-05T12:22:04.426Z,20.15
2022-12-05T12:24:39.927Z,20.16
2022-12-05T12:27:48.177Z,20.19
2022-12-05T12:30:15.199Z,20.20
2022-12-05T12:32:58.724Z,20.22
2022-12-05T12:35:32.719Z,20.20
2022-12-05T12:38:26.988Z,20.22
2022-12-05T12:41:06.944Z,20.24
2022-12-05T12:44:30.838Z,20.23
2022-12-05T12:47:04.207Z,20.22
2022-12-05T12:50:12.515Z,20.21
2022-12-05T12:53:05.155Z,20.24
2022-12-05T12:56:01.511Z,20.24
2022-12-05T12:58:34.003Z,20.26
2022-12-05T13:01:29.244Z,20.21
2022-12-05T13:04:06.582Z,20.18
2022-12-05T13:06:39.639Z,20.22
2022-12-05T13:09:17.549Z,20.22
2022-12-05T13:11:46.806Z,20.17
2022-12-05T13:14:17.657Z,20.23
2022-12-05T13:16:50.316Z,20.23
2022-12-05T13:19:31.341Z,20.20
2022-12-05T13:21:58.831Z,20.20
2022-12-05T13:24:28.761Z,20.15
2022-12-05T13:27:00.520Z,20.19
2022-12-05T13:29:36.491Z,20.15
2022-12-05T13:32:05.412Z,20.15
2022-12-05T13:34:35.290Z,20.15
2022-12-05T13:37:30.358Z,20.17
2022-12-05T13:40:17.003Z,20.06
2022-12-05T13:42:44.505Z,20.08
2022-12-05T13:45:20.146Z,20.10
2022-12-05T13:48:06.893Z,20.10
2022-12-05T13:50:35.942Z,20.10
2022-12-05T13:53:24.184Z,20.08
2022-12-05T13:56:01.112Z,20.08
2022-12-05T13:58:41.543Z,19.99
2022-12-05T14:01:33.988Z,19.98
2022-12-05T14:04:03.792Z,20.23
2022-12-05T14:06:39.265Z,20.27
2022-12-05T14:09:11.872Z,20.25
2022-12-05T14:11:38.425Z,20.20
2022-12-05T14:14:10.345Z,20.28
2022-12-05T14:16:44.542Z,20.27
2022-12-05T14:19:33.993Z,20.28
2022-12-05T14:22:14.716Z,20.27
2022-12-05T14:24:55.554Z,20.25
2022-12-05T14:27:44.358Z,20.22
2022-12-05T14:30:32.094Z,20.17
2022-12-05T14:33:01.932Z,20.18
2022-12-05T14:35:40.644Z,20.20
2022-12-05T14:38:18.500Z,20.18
2022-12-05T14:40:47.379Z,20.16
2022-12-05T14:43:34.389Z,20.16
2022-12-05T14:46:04.206Z,20.15
2022-12-05T14:48:47.278Z,20.18
2022-12-05T14:51:32.536Z,20.14
2022-12-05T14:54:11.870Z,20.16
2022-12-05T14:56:49.635Z,20.14
2022-12-05T14:59:18.887Z,20.13
2022-12-05T15:01:56.133Z,20.15
2022-12-05T15:04:43.592Z,20.13
2022-12-05T15:07:16.877Z,20.08
2022-12-05T15:10:08.286Z,20.14
2022-12-05T15:12:48.753Z,20.07
2022-12-05T15:15:40.325Z,20.10
2022-12-05T15:18:36.484Z,20.18
2022-12-05T15:21:19.160Z,20.20
2022-12-05T15:24:06.671Z,20.24
2022-12-05T15:26:47.888Z,20.26
2022-12-05T15:29:26.816Z,20.30
2022-12-05T15:31:54.607Z,20.32
2022-12-05T15:34:28.824Z,20.32
2022-12-05T15:37:17.235Z,20.35
2022-12-05T15:39:53.747Z,20.39
2022-12-05T15:42:29.581Z,20.39
2022-12-05T15:45:12.024Z,20.43
2022-12-05T15:47:39.864Z,20.44
2022-12-05T15:50:12.557Z,20.39
2022-12-05T15:52:50.704Z,20.41
2022-12-05T15:55:41.643Z,20.35
2022-12-05T15:58:31.665Z,20.34
2022-12-05T16:01:09.334Z,20.30
2022-12-05T16:04:11.277Z,20.35
2022-12-05T16:06:49.346Z,20.32
2022-12-05T16:09:26.312Z,20.28
2022-12-05T16:11:57.333Z,20.31
2022-12-05T16:17:16.660Z,20.29
2022-12-05T16:19:43.828Z,20.32
2022-12-05T16:22:13.168Z,20.33
2022-12-05T16:24:53.826Z,20.32
2022-12-05T16:27:39.573Z,20.30
2022-12-05T16:30:18.457Z,20.30
2022-12-05T16:32:46.611Z,20.31
2022-12-05T16:35:36.485Z,20.29
2022-12-05T16:38:27.094Z,20.28
2022-12-05T16:40:58.160Z,20.28
2022-12-05T16:43:26.066Z,20.29
2022-12-05T16:45:55.247Z,20.29
2022-12-05T16:48:25.963Z,20.30
2022-12-05T16:51:12.390Z,20.31
2022-12-05T16:53:40.844Z,20.31
2022-12-05T16:56:13.442Z,20.32
2022-12-05T16:58:40.012Z,20.30
2022-12-05T17:01:07.415Z,20.30
2022-12-05T17:03:35.801Z,20.28
2022-12-05T17:06:03.654Z,20.31
2022-12-05T17:08:30.332Z,20.27
2022-12-05T17:10:58.008Z,20.27
2022-12-05T17:13:25.106Z,20.30
2022-12-05T17:15:51.829Z,20.28
2022-12-05T17:18:20.903Z,20.30
2022-12-05T17:20:53.172Z,20.32
2022-12-05T17:23:20.395Z,20.28
2022-12-05T17:25:53.151Z,20.34
2022-12-05T17:28:20.232Z,20.30
2022-12-05T17:30:46.850Z,20.29
2022-12-05T17:33:15.875Z,20.30
2022-12-05T17:35:42.800Z,20.24
2022-12-05T17:38:10.914Z,20.20
2022-12-05T17:40:38.473Z,20.25
2022-12-05T17:43:05.726Z,20.23
2022-12-05T17:45:33.126Z,20.23
2022-12-05T17:48:00.039Z,20.20
2022-12-05T17:50:27.830Z,20.21
2022-12-05T17:53:01.628Z,20.27
2022-12-05T17:55:32.404Z,20.26
2022-12-05T17:57:58.958Z,20.26
2022-12-05T18:00:25.645Z,20.28
2022-12-05T18:02:52.654Z,20.29
2022-12-05T18:05:20.075Z,20.24
2022-12-05T18:07:47.523Z,20.28
2022-12-05T18:10:21.221Z,20.24
2022-12-05T18:12:48.817Z,20.22
2022-12-05T18:15:15.994Z,20.17
2022-12-05T18:17:43.713Z,20.24
2022-12-05T18:20:14.329Z,20.22
2022-12-05T18:22:41.394Z,20.25
2022-12-05T18:25:09.453Z,20.27
2022-12-05T18:27:37.657Z,20.24
2022-12-05T18:30:05.721Z,20.27
2022-12-05T18:32:32.897Z,20.30
2022-12-05T18:35:01.757Z,20.30
2022-12-05T18:37:28.942Z,20.30
2022-12-05T18:39:56.428Z,20.33
2022-12-05T18:42:23.366Z,20.31
2022-12-05T18:44:49.997Z,20.30
2022-12-05T18:47:16.581Z,20.31
2022-12-05T18:49:43.134Z,20.26
2022-12-05T18:52:10.283Z,20.21
2022-12-05T18:54:36.982Z,20.25
2022-12-05T18:57:03.818Z,20.20
2022-12-05T18:59:30.799Z,20.22
2022-12-05T19:02:00.362Z,20.25
2022-12-05T19:04:28.882Z,20.25
2022-12-05T19:06:58.645Z,20.21
2022-12-05T19:09:28.218Z,20.23
2022-12-05T19:11:57.131Z,20.20
2022-12-05T19:14:25.543Z,20.18
2022-12-05T19:17:00.015Z,20.23
2022-12-05T19:19:27.730Z,20.17
2022-12-05T19:21:54.402Z,20.24
2022-12-05T19:24:21.000Z,20.24
2022-12-05T19:26:50.417Z,20.24
2022-12-05T19:29:17.405Z,20.22
2022-12-05T19:31:44.633Z,20.19
2022-12-05T19:34:11.908Z,20.22
2022-12-05T19:36:40.989Z,20.20
2022-12-05T19:39:10.764Z,20.19
2022-12-05T19:41:37.581Z,20.18
2022-12-05T19:44:04.973Z,20.14
2022-12-05T19:46:33.155Z,20.39
2022-12-05T19:49:07.271Z,20.71
2022-12-05T19:51:35.070Z,20.95
2022-12-05T19:54:03.413Z,21.15
2022-12-05T19:56:31.797Z,21.30
2022-12-05T19:58:59.824Z,21.35
2022-12-05T20:01:30.633Z,21.53
2022-12-05T20:03:59.893Z,21.66
2022-12-05T20:06:35.661Z,21.75
2022-12-05T20:09:03.069Z,21.77
2022-12-05T20:11:29.998Z,21.81
2022-12-05T20:13:58.715Z,21.85
2022-12-05T20:16:29.461Z,21.90
2022-12-05T20:18:58.235Z,21.93
2022-12-05T20:21:26.172Z,21.96
2022-12-05T20:23:54.457Z,21.80
2022-12-05T20:26:25.002Z,21.78
2022-12-05T20:28:52.031Z,21.74
2022-12-05T20:31:21.945Z,21.86
2022-12-05T20:33:52.916Z,21.92
2022-12-05T20:36:22.463Z,21.94
2022-12-05T20:38:49.565Z,22.08
2022-12-05T20:41:18.237Z,22.18
2022-12-05T20:43:46.407Z,22.27
2022-12-05T20:46:16.094Z,22.22
2022-12-05T20:48:43.518Z,22.23
2022-12-05T20:51:12.551Z,22.27
2022-12-05T20:53:40.984Z,22.28
2022-12-05T20:56:10.914Z,22.27
2022-12-05T20:58:38.492Z,22.26
2022-12-05T21:01:08.143Z,22.31
2022-12-05T21:03:35.934Z,22.34
2022-12-05T21:06:12.035Z,22.37
2022-12-05T21:08:38.809Z,22.42
2022-12-05T21:11:06.746Z,22.36
2022-12-05T21:13:34.103Z,22.36
2022-12-05T21:16:20.807Z,22.43
2022-12-05T21:18:48.068Z,22.42
2022-12-05T21:21:20.236Z,22.41
2022-12-05T21:23:51.793Z,22.41
2022-12-05T21:26:19.062Z,22.46
2022-12-05T21:28:46.328Z,22.47
2022-12-05T21:31:34.172Z,22.49
2022-12-05T21:34:04.540Z,22.52
2022-12-05T21:36:33.646Z,22.42
2022-12-05T21:39:00.571Z,22.43
2022-12-05T21:41:27.307Z,22.52
2022-12-05T21:43:55.597Z,22.54
2022-12-05T21:46:23.723Z,22.53
2022-12-05T21:48:50.559Z,22.54
2022-12-05T21:51:17.344Z,22.56
2022-12-05T21:53:44.004Z,22.51
2022-12-05T21:56:17.266Z,22.60
2022-12-05T21:58:45.948Z,22.58
2022-12-05T22:01:17.639Z,22.62
2022-12-05T22:03:44.555Z,22.64
2022-12-05T22:06:12.806Z,22.71
2022-12-05T22:08:39.631Z,22.72
2022-12-05T22:11:10.745Z,22.75
2022-12-05T22:13:38.042Z,22.73
2022-12-05T22:16:05.245Z,22.69
2022-12-05T22:18:32.711Z,22.69
2022-12-05T22:21:01.610Z,22.76
2022-12-05T22:23:29.022Z,22.62
2022-12-05T22:26:02.478Z,22.66
2022-12-05T22:28:30.341Z,22.74
2022-12-05T22:30:58.679Z,22.80
2022-12-05T22:33:26.358Z,22.79
2022-12-05T22:35:56.749Z,22.79
2022-12-05T22:38:25.097Z,22.82
2022-12-05T22:40:56.358Z,22.74
2022-12-05T22:43:24.101Z,22.78
2022-12-05T22:45:51.150Z,22.81
2022-12-05T22:48:17.929Z,22.80
2022-12-05T22:50:48.982Z,22.78
2022-12-05T22:53:17.815Z,22.86
2022-12-05T22:55:44.361Z,22.81
2022-12-05T22:58:11.344Z,22.82
2022-12-05T23:00:37.926Z,22.83
2022-12-05T23:03:05.346Z,22.87
2022-12-05T23:05:32.306Z,22.85
2022-12-05T23:07:59.001Z,22.97
2022-12-05T23:10:25.781Z,22.89
2022-12-05T23:12:52.361Z,22.93
2022-12-05T23:15:22.048Z,22.89
2022-12-05T23:17:49.037Z,22.90
2022-12-05T23:20:16.113Z,22.94
2022-12-05T23:22:42.744Z,22.88
2022-12-05T23:25:09.835Z,22.88
2022-12-05T23:27:36.645Z,22.86
2022-12-05T23:30:04.212Z,22.93
2022-12-05T23:32:30.877Z,22.92
2022-12-05T23:34:57.419Z,22.96
2022-12-05T23:37:24.154Z,22.94
2022-12-05T23:39:50.948Z,22.99
2022-12-05T23:42:17.506Z,22.90
2022-12-05T23:44:44.268Z,22.95
2022-12-05T23:47:11.131Z,23.01
2022-12-05T23:49:37.739Z,22.93
2022-12-05T23:52:04.317Z,22.92
2022-12-05T23:54:30.928Z,23.00
2022-12-05T23:56:57.562Z,23.02
2022-12-05T23:59:24.153Z,23.09
